sensor_id;sensor_type;location;lat;lon;timestamp;P1;durP1;ratioP1;P2;durP2;ratioP2
66143;SDS011;52947;50.842;6.084;2023-12-20T00:01:22;22.50;;;17.73;;
66143;SDS011;52947;50.842;6.084;2023-12-20T00:03:50;27.75;;;18.52;;
66143;SDS011;52947;50.842;6.084;2023-12-20T00:06:18;32.28;;;20.65;;
66143;SDS011;52947;50.842;6.084;2023-12-20T00:08:47;23.67;;;17.88;;
66143;SDS011;52947;50.842;6.084;2023-12-20T00:11:15;23.92;;;17.42;;
66143;SDS011;52947;50.842;6.084;2023-12-20T00:13:44;25.00;;;16.90;;
66143;SDS011;52947;50.842;6.084;2023-12-20T00:16:17;26.77;;;17.67;;
66143;SDS011;52947;50.842;6.084;2023-12-20T00:18:45;20.08;;;14.02;;
66143;SDS011;52947;50.842;6.084;2023-12-20T00:21:13;23.40;;;15.95;;
66143;SDS011;52947;50.842;6.084;2023-12-20T00:23:41;22.15;;;14.70;;
66143;SDS011;52947;50.842;6.084;2023-12-20T00:26:09;19.65;;;13.45;;
66143;SDS011;52947;50.842;6.084;2023-12-20T00:28:37;26.02;;;15.60;;
66143;SDS011;52947;50.842;6.084;2023-12-20T00:31:07;26.92;;;16.20;;
66143;SDS011;52947;50.842;6.084;2023-12-20T00:33:35;23.02;;;15.60;;
66143;SDS011;52947;50.842;6.084;2023-12-20T00:36:04;26.65;;;15.60;;
66143;SDS011;52947;50.842;6.084;2023-12-20T00:38:32;18.17;;;12.18;;
66143;SDS011;52947;50.842;6.084;2023-12-20T00:41:00;26.80;;;14.90;;
66143;SDS011;52947;50.842;6.084;2023-12-20T00:43:28;24.40;;;15.05;;
66143;SDS011;52947;50.842;6.084;2023-12-20T00:45:56;28.60;;;15.75;;
66143;SDS011;52947;50.842;6.084;2023-12-20T00:48:28;17.83;;;12.63;;
66143;SDS011;52947;50.842;6.084;2023-12-20T00:50:57;24.30;;;16.40;;
66143;SDS011;52947;50.842;6.084;2023-12-20T00:53:25;22.58;;;15.75;;
66143;SDS011;52947;50.842;6.084;2023-12-20T00:55:53;22.73;;;15.05;;
66143;SDS011;52947;50.842;6.084;2023-12-20T00:58:21;23.95;;;13.23;;
66143;SDS011;52947;50.842;6.084;2023-12-20T01:01:06;25.88;;;12.25;;
66143;SDS011;52947;50.842;6.084;2023-12-20T01:03:36;24.70;;;10.93;;
66143;SDS011;52947;50.842;6.084;2023-12-20T01:06:04;19.83;;;7.63;;
66143;SDS011;52947;50.842;6.084;2023-12-20T01:08:32;21.10;;;7.90;;
66143;SDS011;52947;50.842;6.084;2023-12-20T01:11:03;22.15;;;7.70;;
66143;SDS011;52947;50.842;6.084;2023-12-20T01:13:31;25.92;;;6.72;;
66143;SDS011;52947;50.842;6.084;2023-12-20T01:15:59;21.02;;;6.75;;
66143;SDS011;52947;50.842;6.084;2023-12-20T01:18:27;18.02;;;7.07;;
66143;SDS011;52947;50.842;6.084;2023-12-20T01:20:57;14.57;;;6.90;;
66143;SDS011;52947;50.842;6.084;2023-12-20T01:23:29;17.88;;;6.97;;
66143;SDS011;52947;50.842;6.084;2023-12-20T01:25:57;22.27;;;7.20;;
66143;SDS011;52947;50.842;6.084;2023-12-20T01:28:27;19.25;;;6.55;;
66143;SDS011;52947;50.842;6.084;2023-12-20T01:30:55;11.00;;;7.15;;
66143;SDS011;52947;50.842;6.084;2023-12-20T01:33:23;20.60;;;7.35;;
66143;SDS011;52947;50.842;6.084;2023-12-20T01:35:51;19.73;;;6.22;;
66143;SDS011;52947;50.842;6.084;2023-12-20T01:38:20;18.92;;;7.10;;
66143;SDS011;52947;50.842;6.084;2023-12-20T01:40:48;12.05;;;5.90;;
66143;SDS011;52947;50.842;6.084;2023-12-20T01:43:16;14.63;;;6.55;;
66143;SDS011;52947;50.842;6.084;2023-12-20T01:45:44;18.08;;;5.72;;
66143;SDS011;52947;50.842;6.084;2023-12-20T01:48:12;11.75;;;5.80;;
66143;SDS011;52947;50.842;6.084;2023-12-20T01:50:43;22.17;;;6.85;;
66143;SDS011;52947;50.842;6.084;2023-12-20T01:53:12;17.45;;;6.20;;
66143;SDS011;52947;50.842;6.084;2023-12-20T01:55:43;14.63;;;6.45;;
66143;SDS011;52947;50.842;6.084;2023-12-20T01:58:12;23.88;;;6.60;;
66143;SDS011;52947;50.842;6.084;2023-12-20T02:00:42;20.38;;;6.13;;
66143;SDS011;52947;50.842;6.084;2023-12-20T02:03:10;26.73;;;7.45;;
66143;SDS011;52947;50.842;6.084;2023-12-20T02:05:39;27.70;;;7.18;;
66143;SDS011;52947;50.842;6.084;2023-12-20T02:08:07;16.73;;;5.68;;
66143;SDS011;52947;50.842;6.084;2023-12-20T02:10:35;22.77;;;7.60;;
66143;SDS011;52947;50.842;6.084;2023-12-20T02:13:05;20.27;;;5.80;;
66143;SDS011;52947;50.842;6.084;2023-12-20T02:15:33;23.38;;;7.53;;
66143;SDS011;52947;50.842;6.084;2023-12-20T02:18:03;22.30;;;5.80;;
66143;SDS011;52947;50.842;6.084;2023-12-20T02:20:32;18.23;;;6.00;;
66143;SDS011;52947;50.842;6.084;2023-12-20T02:23:01;17.05;;;4.93;;
66143;SDS011;52947;50.842;6.084;2023-12-20T02:25:29;18.20;;;5.97;;
66143;SDS011;52947;50.842;6.084;2023-12-20T02:27:57;18.08;;;5.60;;
66143;SDS011;52947;50.842;6.084;2023-12-20T02:30:25;20.00;;;6.35;;
66143;SDS011;52947;50.842;6.084;2023-12-20T02:32:53;23.92;;;6.82;;
66143;SDS011;52947;50.842;6.084;2023-12-20T02:35:21;14.18;;;5.60;;
66143;SDS011;52947;50.842;6.084;2023-12-20T02:37:49;20.20;;;7.10;;
66143;SDS011;52947;50.842;6.084;2023-12-20T02:40:19;25.60;;;7.30;;
66143;SDS011;52947;50.842;6.084;2023-12-20T02:42:47;17.35;;;7.25;;
66143;SDS011;52947;50.842;6.084;2023-12-20T02:45:15;24.08;;;7.18;;
66143;SDS011;52947;50.842;6.084;2023-12-20T02:47:43;16.92;;;5.47;;
66143;SDS011;52947;50.842;6.084;2023-12-20T02:50:11;18.85;;;6.55;;
66143;SDS011;52947;50.842;6.084;2023-12-20T02:52:39;16.45;;;5.63;;
66143;SDS011;52947;50.842;6.084;2023-12-20T02:55:07;16.08;;;6.13;;
66143;SDS011;52947;50.842;6.084;2023-12-20T02:57:37;18.05;;;6.40;;
66143;SDS011;52947;50.842;6.084;2023-12-20T03:00:08;18.83;;;6.13;;
66143;SDS011;52947;50.842;6.084;2023-12-20T03:02:37;18.23;;;7.25;;
66143;SDS011;52947;50.842;6.084;2023-12-20T03:05:05;16.00;;;6.10;;
66143;SDS011;52947;50.842;6.084;2023-12-20T03:07:34;20.85;;;6.63;;
66143;SDS011;52947;50.842;6.084;2023-12-20T03:10:05;15.90;;;7.22;;
66143;SDS011;52947;50.842;6.084;2023-12-20T03:12:47;15.57;;;6.03;;
66143;SDS011;52947;50.842;6.084;2023-12-20T03:15:15;30.38;;;7.78;;
66143;SDS011;52947;50.842;6.084;2023-12-20T03:17:43;20.98;;;8.07;;
66143;SDS011;52947;50.842;6.084;2023-12-20T03:20:12;16.90;;;7.78;;
66143;SDS011;52947;50.842;6.084;2023-12-20T03:22:40;24.85;;;7.68;;
66143;SDS011;52947;50.842;6.084;2023-12-20T03:25:08;27.02;;;9.32;;
66143;SDS011;52947;50.842;6.084;2023-12-20T03:27:36;19.88;;;6.60;;
66143;SDS011;52947;50.842;6.084;2023-12-20T03:30:07;30.63;;;8.20;;
66143;SDS011;52947;50.842;6.084;2023-12-20T03:32:36;13.20;;;6.28;;
66143;SDS011;52947;50.842;6.084;2023-12-20T03:35:05;26.70;;;8.35;;
66143;SDS011;52947;50.842;6.084;2023-12-20T03:37:33;19.65;;;7.65;;
66143;SDS011;52947;50.842;6.084;2023-12-20T03:40:01;18.33;;;7.55;;
66143;SDS011;52947;50.842;6.084;2023-12-20T03:42:30;17.40;;;6.97;;
66143;SDS011;52947;50.842;6.084;2023-12-20T03:44:58;24.27;;;8.18;;
66143;SDS011;52947;50.842;6.084;2023-12-20T03:47:27;21.90;;;8.60;;
66143;SDS011;52947;50.842;6.084;2023-12-20T03:49:55;30.80;;;8.40;;
66143;SDS011;52947;50.842;6.084;2023-12-20T03:52:23;22.92;;;7.55;;
66143;SDS011;52947;50.842;6.084;2023-12-20T03:54:51;20.65;;;7.28;;
66143;SDS011;52947;50.842;6.084;2023-12-20T03:57:19;24.42;;;7.82;;
66143;SDS011;52947;50.842;6.084;2023-12-20T03:59:47;21.45;;;9.18;;
66143;SDS011;52947;50.842;6.084;2023-12-20T04:02:15;33.05;;;8.68;;
66143;SDS011;52947;50.842;6.084;2023-12-20T04:04:45;19.35;;;8.07;;
66143;SDS011;52947;50.842;6.084;2023-12-20T04:07:13;18.33;;;7.22;;
66143;SDS011;52947;50.842;6.084;2023-12-20T04:09:41;27.38;;;7.30;;
66143;SDS011;52947;50.842;6.084;2023-12-20T04:12:10;22.50;;;7.30;;
66143;SDS011;52947;50.842;6.084;2023-12-20T04:14:38;24.05;;;8.55;;
66143;SDS011;52947;50.842;6.084;2023-12-20T04:17:06;28.08;;;7.93;;
66143;SDS011;52947;50.842;6.084;2023-12-20T04:19:34;31.25;;;8.52;;
66143;SDS011;52947;50.842;6.084;2023-12-20T04:22:04;24.10;;;8.30;;
66143;SDS011;52947;50.842;6.084;2023-12-20T04:24:32;23.20;;;6.93;;
66143;SDS011;52947;50.842;6.084;2023-12-20T04:27:00;14.48;;;6.97;;
66143;SDS011;52947;50.842;6.084;2023-12-20T04:29:28;24.27;;;8.27;;
66143;SDS011;52947;50.842;6.084;2023-12-20T04:31:56;27.48;;;8.15;;
66143;SDS011;52947;50.842;6.084;2023-12-20T04:34:24;20.90;;;7.53;;
66143;SDS011;52947;50.842;6.084;2023-12-20T04:36:52;29.33;;;9.30;;
66143;SDS011;52947;50.842;6.084;2023-12-20T04:39:22;28.45;;;8.05;;
66143;SDS011;52947;50.842;6.084;2023-12-20T04:41:50;20.60;;;8.13;;
66143;SDS011;52947;50.842;6.084;2023-12-20T04:44:18;26.38;;;7.50;;
66143;SDS011;52947;50.842;6.084;2023-12-20T04:46:46;19.25;;;6.82;;
66143;SDS011;52947;50.842;6.084;2023-12-20T04:49:14;25.85;;;7.60;;
66143;SDS011;52947;50.842;6.084;2023-12-20T04:51:43;18.63;;;8.00;;
66143;SDS011;52947;50.842;6.084;2023-12-20T04:54:11;21.73;;;7.53;;
66143;SDS011;52947;50.842;6.084;2023-12-20T04:56:41;31.30;;;8.18;;
66143;SDS011;52947;50.842;6.084;2023-12-20T04:59:09;28.60;;;6.93;;
66143;SDS011;52947;50.842;6.084;2023-12-20T05:01:37;31.77;;;7.72;;
66143;SDS011;52947;50.842;6.084;2023-12-20T05:04:05;15.38;;;6.82;;
66143;SDS011;52947;50.842;6.084;2023-12-20T05:06:33;21.08;;;8.95;;
66143;SDS011;52947;50.842;6.084;2023-12-20T05:09:02;23.05;;;7.88;;
66143;SDS011;52947;50.842;6.084;2023-12-20T05:11:30;23.17;;;8.32;;
66143;SDS011;52947;50.842;6.084;2023-12-20T05:14:00;25.27;;;8.68;;
66143;SDS011;52947;50.842;6.084;2023-12-20T05:16:27;19.25;;;6.53;;
66143;SDS011;52947;50.842;6.084;2023-12-20T05:18:56;35.83;;;8.77;;
66143;SDS011;52947;50.842;6.084;2023-12-20T05:21:25;25.15;;;7.38;;
66143;SDS011;52947;50.842;6.084;2023-12-20T05:23:53;23.80;;;7.60;;
66143;SDS011;52947;50.842;6.084;2023-12-20T05:26:21;36.65;;;8.05;;
66143;SDS011;52947;50.842;6.084;2023-12-20T05:28:48;21.88;;;7.45;;
66143;SDS011;52947;50.842;6.084;2023-12-20T05:31:18;33.42;;;9.85;;
66143;SDS011;52947;50.842;6.084;2023-12-20T05:33:46;31.73;;;7.72;;
66143;SDS011;52947;50.842;6.084;2023-12-20T05:36:14;31.27;;;7.85;;
66143;SDS011;52947;50.842;6.084;2023-12-20T05:38:42;32.17;;;8.20;;
66143;SDS011;52947;50.842;6.084;2023-12-20T05:41:10;27.35;;;7.53;;
66143;SDS011;52947;50.842;6.084;2023-12-20T05:43:38;23.48;;;7.70;;
66143;SDS011;52947;50.842;6.084;2023-12-20T05:46:06;31.75;;;7.88;;
66143;SDS011;52947;50.842;6.084;2023-12-20T05:48:35;24.20;;;7.05;;
66143;SDS011;52947;50.842;6.084;2023-12-20T05:51:04;21.27;;;8.15;;
66143;SDS011;52947;50.842;6.084;2023-12-20T05:53:32;30.13;;;7.53;;
66143;SDS011;52947;50.842;6.084;2023-12-20T05:56:00;24.55;;;7.82;;
66143;SDS011;52947;50.842;6.084;2023-12-20T05:58:28;23.73;;;9.20;;
66143;SDS011;52947;50.842;6.084;2023-12-20T06:00:56;20.55;;;8.48;;
66143;SDS011;52947;50.842;6.084;2023-12-20T06:03:24;29.65;;;9.45;;
66143;SDS011;52947;50.842;6.084;2023-12-20T06:05:54;28.95;;;10.48;;
66143;SDS011;52947;50.842;6.084;2023-12-20T06:08:38;31.90;;;8.88;;
66143;SDS011;52947;50.842;6.084;2023-12-20T06:11:06;26.85;;;9.27;;
66143;SDS011;52947;50.842;6.084;2023-12-20T06:13:34;27.05;;;9.55;;
66143;SDS011;52947;50.842;6.084;2023-12-20T06:16:05;34.95;;;8.98;;
66143;SDS011;52947;50.842;6.084;2023-12-20T06:18:34;27.67;;;9.43;;
66143;SDS011;52947;50.842;6.084;2023-12-20T06:21:05;30.20;;;8.65;;
66143;SDS011;52947;50.842;6.084;2023-12-20T06:23:33;32.33;;;10.10;;
66143;SDS011;52947;50.842;6.084;2023-12-20T06:26:01;22.80;;;8.73;;
66143;SDS011;52947;50.842;6.084;2023-12-20T06:28:47;18.63;;;8.13;;
66143;SDS011;52947;50.842;6.084;2023-12-20T06:31:15;29.73;;;11.35;;
66143;SDS011;52947;50.842;6.084;2023-12-20T06:33:44;43.30;;;10.88;;
66143;SDS011;52947;50.842;6.084;2023-12-20T06:36:13;17.80;;;8.07;;
66143;SDS011;52947;50.842;6.084;2023-12-20T06:38:41;21.58;;;9.90;;
66143;SDS011;52947;50.842;6.084;2023-12-20T06:41:12;39.05;;;10.98;;
66143;SDS011;52947;50.842;6.084;2023-12-20T06:43:41;33.28;;;9.40;;
66143;SDS011;52947;50.842;6.084;2023-12-20T06:46:15;26.30;;;8.68;;
66143;SDS011;52947;50.842;6.084;2023-12-20T06:48:44;29.60;;;9.00;;
66143;SDS011;52947;50.842;6.084;2023-12-20T06:51:14;34.97;;;10.50;;
66143;SDS011;52947;50.842;6.084;2023-12-20T06:53:43;32.28;;;10.18;;
66143;SDS011;52947;50.842;6.084;2023-12-20T06:56:11;23.33;;;8.50;;
66143;SDS011;52947;50.842;6.084;2023-12-20T06:58:43;27.83;;;8.68;;
66143;SDS011;52947;50.842;6.084;2023-12-20T07:01:11;30.58;;;7.78;;
66143;SDS011;52947;50.842;6.084;2023-12-20T07:03:40;28.08;;;8.90;;
66143;SDS011;52947;50.842;6.084;2023-12-20T07:06:08;16.10;;;9.00;;
66143;SDS011;52947;50.842;6.084;2023-12-20T07:08:37;36.40;;;10.57;;
66143;SDS011;52947;50.842;6.084;2023-12-20T07:11:07;26.58;;;8.02;;
66143;SDS011;52947;50.842;6.084;2023-12-20T07:13:35;34.70;;;10.55;;
66143;SDS011;52947;50.842;6.084;2023-12-20T07:16:04;28.52;;;13.43;;
66143;SDS011;52947;50.842;6.084;2023-12-20T07:18:32;30.13;;;10.40;;
66143;SDS011;52947;50.842;6.084;2023-12-20T07:21:01;24.17;;;9.10;;
66143;SDS011;52947;50.842;6.084;2023-12-20T07:23:29;25.38;;;9.75;;
66143;SDS011;52947;50.842;6.084;2023-12-20T07:25:58;28.42;;;12.10;;
66143;SDS011;52947;50.842;6.084;2023-12-20T07:28:26;29.77;;;9.00;;
66143;SDS011;52947;50.842;6.084;2023-12-20T07:30:54;30.60;;;11.15;;
66143;SDS011;52947;50.842;6.084;2023-12-20T07:33:22;31.83;;;9.93;;
66143;SDS011;52947;50.842;6.084;2023-12-20T07:35:50;29.48;;;10.65;;
66143;SDS011;52947;50.842;6.084;2023-12-20T07:38:19;34.47;;;10.95;;
66143;SDS011;52947;50.842;6.084;2023-12-20T07:40:47;30.42;;;10.48;;
66143;SDS011;52947;50.842;6.084;2023-12-20T07:43:16;31.42;;;12.20;;
66143;SDS011;52947;50.842;6.084;2023-12-20T07:45:44;26.25;;;10.02;;
66143;SDS011;52947;50.842;6.084;2023-12-20T07:48:12;23.55;;;10.18;;
66143;SDS011;52947;50.842;6.084;2023-12-20T07:50:40;31.38;;;10.90;;
66143;SDS011;52947;50.842;6.084;2023-12-20T07:53:09;23.40;;;9.68;;
66143;SDS011;52947;50.842;6.084;2023-12-20T07:55:37;26.65;;;10.30;;
66143;SDS011;52947;50.842;6.084;2023-12-20T07:58:05;28.27;;;9.60;;
66143;SDS011;52947;50.842;6.084;2023-12-20T08:00:34;33.75;;;9.63;;
66143;SDS011;52947;50.842;6.084;2023-12-20T08:03:02;29.90;;;11.02;;
66143;SDS011;52947;50.842;6.084;2023-12-20T08:05:30;31.10;;;11.32;;
66143;SDS011;52947;50.842;6.084;2023-12-20T08:07:58;30.23;;;11.30;;
66143;SDS011;52947;50.842;6.084;2023-12-20T08:10:26;30.63;;;9.82;;
66143;SDS011;52947;50.842;6.084;2023-12-20T08:12:56;36.05;;;11.60;;
66143;SDS011;52947;50.842;6.084;2023-12-20T08:15:24;29.70;;;13.38;;
66143;SDS011;52947;50.842;6.084;2023-12-20T08:17:53;35.58;;;11.57;;
66143;SDS011;52947;50.842;6.084;2023-12-20T08:20:21;28.33;;;12.40;;
66143;SDS011;52947;50.842;6.084;2023-12-20T08:23:05;35.08;;;12.73;;
66143;SDS011;52947;50.842;6.084;2023-12-20T08:25:33;34.83;;;14.38;;
66143;SDS011;52947;50.842;6.084;2023-12-20T08:28:01;35.05;;;12.18;;
66143;SDS011;52947;50.842;6.084;2023-12-20T08:30:31;27.55;;;10.30;;
66143;SDS011;52947;50.842;6.084;2023-12-20T08:33:00;24.13;;;10.52;;
66143;SDS011;52947;50.842;6.084;2023-12-20T08:35:29;39.88;;;12.82;;
66143;SDS011;52947;50.842;6.084;2023-12-20T08:37:57;33.45;;;11.30;;
66143;SDS011;52947;50.842;6.084;2023-12-20T08:40:26;31.33;;;10.40;;
66143;SDS011;52947;50.842;6.084;2023-12-20T08:42:54;31.25;;;10.50;;
66143;SDS011;52947;50.842;6.084;2023-12-20T08:45:23;25.70;;;10.82;;
66143;SDS011;52947;50.842;6.084;2023-12-20T08:47:51;28.00;;;10.63;;
66143;SDS011;52947;50.842;6.084;2023-12-20T08:50:20;25.02;;;10.88;;
66143;SDS011;52947;50.842;6.084;2023-12-20T08:52:49;30.83;;;10.10;;
66143;SDS011;52947;50.842;6.084;2023-12-20T08:55:17;22.85;;;11.27;;
66143;SDS011;52947;50.842;6.084;2023-12-20T08:57:45;25.13;;;12.45;;
66143;SDS011;52947;50.842;6.084;2023-12-20T09:00:14;28.00;;;10.27;;
66143;SDS011;52947;50.842;6.084;2023-12-20T09:02:42;32.00;;;10.52;;
66143;SDS011;52947;50.842;6.084;2023-12-20T09:05:10;31.00;;;10.80;;
66143;SDS011;52947;50.842;6.084;2023-12-20T09:07:40;23.27;;;10.25;;
66143;SDS011;52947;50.842;6.084;2023-12-20T09:10:08;40.17;;;12.50;;
66143;SDS011;52947;50.842;6.084;2023-12-20T09:12:36;30.30;;;10.13;;
66143;SDS011;52947;50.842;6.084;2023-12-20T09:15:06;29.17;;;10.73;;
66143;SDS011;52947;50.842;6.084;2023-12-20T09:17:34;25.90;;;10.18;;
66143;SDS011;52947;50.842;6.084;2023-12-20T09:20:03;25.15;;;9.43;;
66143;SDS011;52947;50.842;6.084;2023-12-20T09:22:33;24.30;;;10.02;;
66143;SDS011;52947;50.842;6.084;2023-12-20T09:25:03;29.35;;;10.35;;
66143;SDS011;52947;50.842;6.084;2023-12-20T09:27:32;25.08;;;10.13;;
66143;SDS011;52947;50.842;6.084;2023-12-20T09:29:59;31.92;;;11.35;;
66143;SDS011;52947;50.842;6.084;2023-12-20T09:32:28;22.92;;;9.68;;
66143;SDS011;52947;50.842;6.084;2023-12-20T09:34:56;35.72;;;14.07;;
66143;SDS011;52947;50.842;6.084;2023-12-20T09:37:25;30.90;;;11.57;;
66143;SDS011;52947;50.842;6.084;2023-12-20T09:39:54;28.27;;;9.77;;
66143;SDS011;52947;50.842;6.084;2023-12-20T09:42:28;44.30;;;11.45;;
66143;SDS011;52947;50.842;6.084;2023-12-20T09:45:02;35.70;;;10.45;;
66143;SDS011;52947;50.842;6.084;2023-12-20T09:47:31;34.67;;;8.70;;
66143;SDS011;52947;50.842;6.084;2023-12-20T09:50:00;33.15;;;9.55;;
66143;SDS011;52947;50.842;6.084;2023-12-20T09:52:29;20.08;;;9.43;;
66143;SDS011;52947;50.842;6.084;2023-12-20T09:54:57;32.47;;;10.50;;
66143;SDS011;52947;50.842;6.084;2023-12-20T09:57:27;19.85;;;8.55;;
66143;SDS011;52947;50.842;6.084;2023-12-20T09:59:55;22.10;;;8.05;;
66143;SDS011;52947;50.842;6.084;2023-12-20T10:02:23;28.15;;;10.15;;
66143;SDS011;52947;50.842;6.084;2023-12-20T10:04:54;20.92;;;9.63;;
66143;SDS011;52947;50.842;6.084;2023-12-20T10:07:22;35.92;;;9.60;;
66143;SDS011;52947;50.842;6.084;2023-12-20T10:09:51;34.03;;;9.50;;
66143;SDS011;52947;50.842;6.084;2023-12-20T10:12:22;25.30;;;8.73;;
66143;SDS011;52947;50.842;6.084;2023-12-20T10:14:52;18.10;;;7.93;;
66143;SDS011;52947;50.842;6.084;2023-12-20T10:17:19;18.80;;;9.40;;
66143;SDS011;52947;50.842;6.084;2023-12-20T10:19:49;25.45;;;8.52;;
66143;SDS011;52947;50.842;6.084;2023-12-20T10:22:17;22.63;;;9.32;;
66143;SDS011;52947;50.842;6.084;2023-12-20T10:24:45;24.35;;;8.65;;
66143;SDS011;52947;50.842;6.084;2023-12-20T10:27:14;25.88;;;8.88;;
66143;SDS011;52947;50.842;6.084;2023-12-20T10:29:43;22.00;;;8.07;;
66143;SDS011;52947;50.842;6.084;2023-12-20T10:32:26;15.18;;;7.82;;
66143;SDS011;52947;50.842;6.084;2023-12-20T10:34:55;11.48;;;8.38;;
66143;SDS011;52947;50.842;6.084;2023-12-20T10:37:23;25.17;;;9.18;;
66143;SDS011;52947;50.842;6.084;2023-12-20T10:39:52;32.20;;;10.32;;
66143;SDS011;52947;50.842;6.084;2023-12-20T10:42:24;22.75;;;9.73;;
66143;SDS011;52947;50.842;6.084;2023-12-20T10:44:53;30.70;;;8.07;;
66143;SDS011;52947;50.842;6.084;2023-12-20T10:47:22;31.13;;;8.95;;
66143;SDS011;52947;50.842;6.084;2023-12-20T10:49:53;24.10;;;9.23;;
66143;SDS011;52947;50.842;6.084;2023-12-20T10:52:22;17.55;;;10.32;;
66143;SDS011;52947;50.842;6.084;2023-12-20T10:54:51;21.58;;;7.97;;
66143;SDS011;52947;50.842;6.084;2023-12-20T10:57:19;26.92;;;8.88;;
66143;SDS011;52947;50.842;6.084;2023-12-20T10:59:49;30.45;;;9.05;;
66143;SDS011;52947;50.842;6.084;2023-12-20T11:02:21;34.73;;;9.37;;
66143;SDS011;52947;50.842;6.084;2023-12-20T11:04:52;21.23;;;8.02;;
66143;SDS011;52947;50.842;6.084;2023-12-20T11:07:25;35.90;;;9.30;;
66143;SDS011;52947;50.842;6.084;2023-12-20T11:10:00;24.95;;;8.13;;
66143;SDS011;52947;50.842;6.084;2023-12-20T11:12:39;17.33;;;7.68;;
66143;SDS011;52947;50.842;6.084;2023-12-20T11:15:14;27.92;;;8.05;;
66143;SDS011;52947;50.842;6.084;2023-12-20T11:17:44;27.27;;;8.45;;
66143;SDS011;52947;50.842;6.084;2023-12-20T11:20:20;33.80;;;11.23;;
66143;SDS011;52947;50.842;6.084;2023-12-20T11:22:54;31.10;;;8.93;;
66143;SDS011;52947;50.842;6.084;2023-12-20T11:25:23;23.02;;;7.32;;
66143;SDS011;52947;50.842;6.084;2023-12-20T11:28:06;26.90;;;9.35;;
66143;SDS011;52947;50.842;6.084;2023-12-20T11:30:43;25.40;;;7.90;;
66143;SDS011;52947;50.842;6.084;2023-12-20T11:33:14;35.05;;;12.75;;
66143;SDS011;52947;50.842;6.084;2023-12-20T11:35:46;20.63;;;8.43;;
66143;SDS011;52947;50.842;6.084;2023-12-20T11:38:14;20.30;;;8.70;;
66143;SDS011;52947;50.842;6.084;2023-12-20T11:40:42;21.13;;;7.80;;
66143;SDS011;52947;50.842;6.084;2023-12-20T11:43:11;28.52;;;7.85;;
66143;SDS011;52947;50.842;6.084;2023-12-20T11:45:42;28.52;;;9.32;;
66143;SDS011;52947;50.842;6.084;2023-12-20T11:48:17;30.25;;;8.77;;
66143;SDS011;52947;50.842;6.084;2023-12-20T11:50:47;22.55;;;8.80;;
66143;SDS011;52947;50.842;6.084;2023-12-20T11:53:15;20.20;;;8.65;;
66143;SDS011;52947;50.842;6.084;2023-12-20T11:55:47;21.83;;;7.72;;
66143;SDS011;52947;50.842;6.084;2023-12-20T11:58:15;23.98;;;8.57;;
66143;SDS011;52947;50.842;6.084;2023-12-20T12:00:44;18.23;;;8.27;;
66143;SDS011;52947;50.842;6.084;2023-12-20T12:03:14;19.33;;;8.40;;
66143;SDS011;52947;50.842;6.084;2023-12-20T12:05:42;23.30;;;10.35;;
66143;SDS011;52947;50.842;6.084;2023-12-20T12:08:12;27.92;;;9.52;;
66143;SDS011;52947;50.842;6.084;2023-12-20T12:10:40;21.52;;;8.27;;
66143;SDS011;52947;50.842;6.084;2023-12-20T12:13:08;17.35;;;8.52;;
66143;SDS011;52947;50.842;6.084;2023-12-20T12:15:37;38.30;;;8.93;;
66143;SDS011;52947;50.842;6.084;2023-12-20T12:18:05;32.17;;;10.40;;
66143;SDS011;52947;50.842;6.084;2023-12-20T12:20:34;32.80;;;9.35;;
66143;SDS011;52947;50.842;6.084;2023-12-20T12:23:04;23.25;;;7.30;;
66143;SDS011;52947;50.842;6.084;2023-12-20T12:25:35;25.40;;;10.25;;
66143;SDS011;52947;50.842;6.084;2023-12-20T12:28:08;28.35;;;9.00;;
66143;SDS011;52947;50.842;6.084;2023-12-20T12:30:37;22.50;;;9.77;;
66143;SDS011;52947;50.842;6.084;2023-12-20T12:33:15;19.25;;;8.43;;
66143;SDS011;52947;50.842;6.084;2023-12-20T12:35:44;22.90;;;9.50;;
66143;SDS011;52947;50.842;6.084;2023-12-20T12:38:14;20.67;;;8.60;;
66143;SDS011;52947;50.842;6.084;2023-12-20T12:40:44;34.80;;;10.60;;
66143;SDS011;52947;50.842;6.084;2023-12-20T12:43:12;28.17;;;8.77;;
66143;SDS011;52947;50.842;6.084;2023-12-20T12:45:40;28.00;;;8.27;;
66143;SDS011;52947;50.842;6.084;2023-12-20T12:48:08;29.73;;;9.25;;
66143;SDS011;52947;50.842;6.084;2023-12-20T12:50:36;37.38;;;9.60;;
66143;SDS011;52947;50.842;6.084;2023-12-20T12:53:04;30.80;;;9.15;;
66143;SDS011;52947;50.842;6.084;2023-12-20T12:55:33;24.35;;;10.05;;
66143;SDS011;52947;50.842;6.084;2023-12-20T12:58:04;34.00;;;9.93;;
66143;SDS011;52947;50.842;6.084;2023-12-20T13:00:32;32.92;;;10.95;;
66143;SDS011;52947;50.842;6.084;2023-12-20T13:03:00;19.67;;;9.25;;
66143;SDS011;52947;50.842;6.084;2023-12-20T13:05:28;23.88;;;9.20;;
66143;SDS011;52947;50.842;6.084;2023-12-20T13:08:04;30.38;;;10.07;;
66143;SDS011;52947;50.842;6.084;2023-12-20T13:10:33;30.88;;;10.13;;
66143;SDS011;52947;50.842;6.084;2023-12-20T13:13:01;27.48;;;9.40;;
66143;SDS011;52947;50.842;6.084;2023-12-20T13:15:32;38.55;;;10.93;;
66143;SDS011;52947;50.842;6.084;2023-12-20T13:18:00;35.17;;;11.52;;
66143;SDS011;52947;50.842;6.084;2023-12-20T13:20:29;27.65;;;9.98;;
66143;SDS011;52947;50.842;6.084;2023-12-20T13:22:59;26.67;;;9.98;;
66143;SDS011;52947;50.842;6.084;2023-12-20T13:25:28;40.05;;;10.65;;
66143;SDS011;52947;50.842;6.084;2023-12-20T13:27:56;24.52;;;9.43;;
66143;SDS011;52947;50.842;6.084;2023-12-20T13:30:26;34.80;;;9.82;;
66143;SDS011;52947;50.842;6.084;2023-12-20T13:32:55;23.58;;;9.30;;
66143;SDS011;52947;50.842;6.084;2023-12-20T13:35:23;33.75;;;9.80;;
66143;SDS011;52947;50.842;6.084;2023-12-20T13:37:51;24.00;;;9.43;;
66143;SDS011;52947;50.842;6.084;2023-12-20T13:40:19;33.63;;;10.02;;
66143;SDS011;52947;50.842;6.084;2023-12-20T13:42:48;19.48;;;10.38;;
66143;SDS011;52947;50.842;6.084;2023-12-20T13:45:16;25.15;;;9.80;;
66143;SDS011;52947;50.842;6.084;2023-12-20T13:47:44;21.35;;;9.27;;
66143;SDS011;52947;50.842;6.084;2023-12-20T13:50:14;26.67;;;10.13;;
66143;SDS011;52947;50.842;6.084;2023-12-20T13:52:42;29.92;;;10.00;;
66143;SDS011;52947;50.842;6.084;2023-12-20T13:55:10;28.25;;;8.50;;
66143;SDS011;52947;50.842;6.084;2023-12-20T13:57:38;25.67;;;8.88;;
66143;SDS011;52947;50.842;6.084;2023-12-20T14:00:20;39.85;;;11.07;;
66143;SDS011;52947;50.842;6.084;2023-12-20T14:02:48;29.60;;;9.63;;
66143;SDS011;52947;50.842;6.084;2023-12-20T14:05:18;24.65;;;9.00;;
66143;SDS011;52947;50.842;6.084;2023-12-20T14:07:51;23.63;;;8.63;;
66143;SDS011;52947;50.842;6.084;2023-12-20T14:10:19;25.88;;;10.85;;
66143;SDS011;52947;50.842;6.084;2023-12-20T14:12:47;28.67;;;10.80;;
66143;SDS011;52947;50.842;6.084;2023-12-20T14:15:16;34.65;;;9.18;;
66143;SDS011;52947;50.842;6.084;2023-12-20T14:17:44;33.75;;;12.13;;
66143;SDS011;52947;50.842;6.084;2023-12-20T14:20:12;32.20;;;10.32;;
66143;SDS011;52947;50.842;6.084;2023-12-20T14:22:42;32.67;;;10.98;;
66143;SDS011;52947;50.842;6.084;2023-12-20T14:25:11;27.67;;;9.85;;
66143;SDS011;52947;50.842;6.084;2023-12-20T14:27:39;32.22;;;12.13;;
66143;SDS011;52947;50.842;6.084;2023-12-20T14:30:11;22.98;;;9.88;;
66143;SDS011;52947;50.842;6.084;2023-12-20T14:32:41;25.98;;;10.15;;
66143;SDS011;52947;50.842;6.084;2023-12-20T14:35:09;36.42;;;9.82;;
66143;SDS011;52947;50.842;6.084;2023-12-20T14:37:37;28.55;;;11.98;;
66143;SDS011;52947;50.842;6.084;2023-12-20T14:40:09;21.48;;;10.55;;
66143;SDS011;52947;50.842;6.084;2023-12-20T14:42:42;33.38;;;10.25;;